Time;durP1;ratioP1;P1;durP2;ratioP2;P2;SDS_P1;SDS_P2;PMS_P1;PMS_P2;Temp;Humidity;BMP_temperature;BMP_pressure;BME280_temperature;BME280_humidity;BME280_pressure;Samples;Min_cycle;Max_cycle;Signal;HPM_P1;HPM_P2
2023/09/09 00:01:01;;;;;;;;;;;21.20;56.50;;;;;;4994025;28;88542;-50
2023/09/09 00:03:26;;;;;;;;;;;21.20;56.50;;;;;;4989540;28;87150;-47
2023/09/09 00:05:52;;;;;;;;;;;21.20;56.50;;;;;;4993674;28;87371;-51
2023/09/09 00:08:18;;;;;;;;;;;21.20;56.50;;;;;;4992566;28;88445;-52
2023/09/09 00:10:44;;;;;;;;;;;21.20;56.50;;;;;;4991414;28;87208;-48
2023/09/09 00:13:10;;;;;;;;;;;21.20;56.50;;;;;;4993512;28;87752;-47
2023/09/09 00:15:35;;;;;;;;;;;21.20;56.50;;;;;;4995735;28;88524;-45
2023/09/09 00:18:02;;;;;;;;;;;21.20;56.50;;;;;;4990737;28;87757;-52
2023/09/09 00:20:33;;;;;;;;;;;21.20;56.50;;;;;;4991255;28;90664;-48
2023/09/09 00:23:00;;;;;;;;;;;21.20;56.50;;;;;;4990894;28;87223;-49
2023/09/09 00:25:25;;;;;;;;;;;21.10;56.50;;;;;;4992398;28;88889;-51
2023/09/09 00:27:51;;;;;;;;;;;21.10;56.50;;;;;;4992835;28;88215;-50
2023/09/09 00:30:16;;;;;;;;;;;21.10;56.60;;;;;;4991121;28;87184;-51
2023/09/09 00:32:42;;;;;;;;;;;21.10;56.50;;;;;;4994336;28;87885;-49
2023/09/09 00:35:07;;;;;;;;;;;21.10;56.50;;;;;;4990426;28;88557;-49
2023/09/09 00:37:33;;;;;;;;;;;21.10;56.50;;;;;;4994639;28;86430;-47
2023/09/09 00:39:59;;;;;;;;;;;21.10;56.50;;;;;;4991325;28;89419;-49
2023/09/09 00:42:24;;;;;;;;;;;21.10;56.50;;;;;;4993129;28;87166;-48
2023/09/09 00:44:50;;;;;;;;;;;21.10;56.50;;;;;;4990583;28;88751;-51
2023/09/09 00:47:16;;;;;;;;;;;21.10;56.50;;;;;;4992514;28;88069;-48
2023/09/09 00:49:42;;;;;;;;;;;21.00;56.40;;;;;;4988987;28;87205;-48
2023/09/09 00:52:08;;;;;;;;;;;21.00;56.40;;;;;;4992277;28;88103;-48
2023/09/09 00:54:34;;;;;;;;;;;21.00;56.70;;;;;;4992990;28;88316;-49
2023/09/09 00:57:00;;;;;;;;;;;21.00;56.50;;;;;;4990691;28;87202;-50
2023/09/09 00:59:26;;;;;;;;;;;21.00;56.50;;;;;;4993728;28;88756;-51
2023/09/09 01:01:52;;;;;;;;;;;21.00;56.50;;;;;;4993014;28;86356;-53
2023/09/09 01:04:17;;;;;;;;;;;21.00;56.50;;;;;;4994881;28;87312;-50
2023/09/09 01:06:43;;;;;;;;;;;21.00;56.50;;;;;;4994613;28;88048;-51
2023/09/09 01:09:08;;;;;;;;;;;20.90;56.40;;;;;;4995768;28;88012;-52
2023/09/09 01:11:34;;;;;;;;;;;20.90;56.50;;;;;;4994869;28;88093;-48
2023/09/09 01:13:59;;;;;;;;;;;20.90;56.50;;;;;;4994017;28;88040;-53
2023/09/09 01:16:26;;;;;;;;;;;20.90;56.60;;;;;;4996564;28;87170;-52
2023/09/09 01:18:53;;;;;;;;;;;20.80;56.60;;;;;;4995950;28;91020;-50
2023/09/09 01:21:19;;;;;;;;;;;20.90;56.60;;;;;;4995998;28;87027;-48
2023/09/09 01:23:45;;;;;;;;;;;20.90;56.50;;;;;;4994162;28;89015;-45
2023/09/09 01:26:10;;;;;;;;;;;20.80;56.50;;;;;;4994751;28;87396;-51
2023/09/09 01:28:36;;;;;;;;;;;20.80;56.50;;;;;;4996036;28;86900;-53
2023/09/09 01:31:02;;;;;;;;;;;20.80;56.60;;;;;;4994473;28;87978;-52
2023/09/09 01:33:27;;;;;;;;;;;20.80;56.60;;;;;;4992085;28;89084;-48
2023/09/09 01:35:53;;;;;;;;;;;20.70;56.60;;;;;;4993354;28;87156;-48
2023/09/09 01:38:18;;;;;;;;;;;20.70;56.70;;;;;;4995353;28;87596;-53
2023/09/09 01:40:44;;;;;;;;;;;20.80;56.60;;;;;;4998508;28;88112;-49
2023/09/09 01:43:10;;;;;;;;;;;20.70;56.50;;;;;;4993447;28;87652;-52
2023/09/09 01:45:35;;;;;;;;;;;20.70;57.10;;;;;;4994143;28;89690;-47
2023/09/09 01:48:01;;;;;;;;;;;20.80;56.50;;;;;;4995445;28;87141;-50
2023/09/09 01:50:26;;;;;;;;;;;20.70;56.60;;;;;;4993619;28;87767;-48
2023/09/09 01:52:52;;;;;;;;;;;20.80;56.60;;;;;;4994113;28;88528;-49
2023/09/09 01:55:18;;;;;;;;;;;20.70;56.50;;;;;;4995927;28;87071;-50
2023/09/09 01:57:43;;;;;;;;;;;20.70;56.60;;;;;;4992613;28;89013;-48
2023/09/09 02:00:09;;;;;;;;;;;20.70;56.60;;;;;;4994924;28;87659;-47
2023/09/09 02:02:35;;;;;;;;;;;20.60;56.60;;;;;;4996099;28;87153;-49
2023/09/09 02:05:01;;;;;;;;;;;20.70;56.60;;;;;;4993968;28;88252;-52
2023/09/09 02:07:27;;;;;;;;;;;20.60;56.50;;;;;;4992241;28;87775;-51
2023/09/09 02:09:53;;;;;;;;;;;20.60;56.60;;;;;;4994974;28;89024;-47
2023/09/09 02:12:18;;;;;;;;;;;20.60;56.60;;;;;;4994124;28;88790;-54
2023/09/09 02:14:44;;;;;;;;;;;20.60;56.50;;;;;;4993104;28;86395;-46
2023/09/09 02:17:11;;;;;;;;;;;20.60;56.50;;;;;;4994677;28;87310;-51
2023/09/09 02:19:36;;;;;;;;;;;20.60;56.60;;;;;;4989584;28;88734;-50
2023/09/09 02:22:02;;;;;;;;;;;20.50;56.60;;;;;;4994847;28;88102;-47
2023/09/09 02:24:27;;;;;;;;;;;20.50;56.60;;;;;;4994779;28;88524;-52
2023/09/09 02:26:53;;;;;;;;;;;20.50;56.60;;;;;;4998590;28;87394;-50
2023/09/09 02:29:19;;;;;;;;;;;20.50;56.60;;;;;;4995123;28;87381;-50
2023/09/09 02:31:44;;;;;;;;;;;20.50;56.70;;;;;;4991993;28;89222;-48
2023/09/09 02:34:10;;;;;;;;;;;20.50;56.60;;;;;;4992943;28;87141;-50
2023/09/09 02:36:35;;;;;;;;;;;20.50;56.60;;;;;;4991465;28;87750;-48
2023/09/09 02:39:01;;;;;;;;;;;20.50;56.60;;;;;;4993796;28;87952;-47
2023/09/09 02:41:27;;;;;;;;;;;20.50;56.70;;;;;;4991658;28;87467;-48
2023/09/09 02:43:52;;;;;;;;;;;20.40;56.60;;;;;;4994869;28;88725;-46
2023/09/09 02:46:19;;;;;;;;;;;20.50;56.60;;;;;;4995237;28;88980;-49
2023/09/09 02:48:45;;;;;;;;;;;20.40;56.60;;;;;;4990940;28;87657;-50
2023/09/09 02:51:10;;;;;;;;;;;20.40;56.60;;;;;;4991491;28;89120;-50
2023/09/09 02:53:36;;;;;;;;;;;20.40;56.60;;;;;;4992890;28;87535;-50
2023/09/09 02:56:01;;;;;;;;;;;20.40;56.60;;;;;;4993322;28;87621;-48
2023/09/09 02:58:27;;;;;;;;;;;20.30;56.70;;;;;;4992154;28;88026;-48
2023/09/09 03:00:53;;;;;;;;;;;20.30;56.60;;;;;;4994429;28;86946;-46
2023/09/09 03:03:20;;;;;;;;;;;20.30;56.60;;;;;;4992749;28;88861;-46
2023/09/09 03:05:45;;;;;;;;;;;20.30;56.60;;;;;;4991083;28;88171;-49
2023/09/09 03:08:11;;;;;;;;;;;20.30;56.60;;;;;;4994367;28;87517;-46
2023/09/09 03:10:37;;;;;;;;;;;20.30;56.60;;;;;;4992730;28;89424;-49
2023/09/09 03:13:03;;;;;;;;;;;20.20;56.60;;;;;;4994023;28;87105;-49
2023/09/09 03:15:29;;;;;;;;;;;20.20;56.60;;;;;;4992418;28;87933;-46
2023/09/09 03:17:55;;;;;;;;;;;20.30;56.60;;;;;;4993022;28;88406;-48
2023/09/09 03:20:20;;;;;;;;;;;20.20;56.50;;;;;;4989005;28;87147;-47
2023/09/09 03:22:46;;;;;;;;;;;20.20;56.50;;;;;;4994493;28;87820;-47
2023/09/09 03:25:11;;;;;;;;;;;20.20;56.50;;;;;;4999933;28;91504;-50
2023/09/09 03:27:37;;;;;;;;;;;20.20;56.50;;;;;;5004113;28;86843;-49
2023/09/09 03:30:03;;;;;;;;;;;20.20;56.50;;;;;;4991202;28;89093;-49
2023/09/09 03:32:29;;;;;;;;;;;20.20;56.50;;;;;;4990944;28;87119;-48
2023/09/09 03:34:55;;;;;;;;;;;20.20;56.50;;;;;;4992804;28;89214;-47
2023/09/09 03:37:21;;;;;;;;;;;20.20;56.40;;;;;;4992088;28;88484;-45
2023/09/09 03:39:47;;;;;;;;;;;20.20;56.50;;;;;;4992135;28;87713;-47
2023/09/09 03:42:13;;;;;;;;;;;20.10;56.40;;;;;;4994664;28;87952;-50
2023/09/09 03:44:38;;;;;;;;;;;20.10;56.50;;;;;;4997437;28;91408;-52
2023/09/09 03:47:04;;;;;;;;;;;20.10;56.40;;;;;;4993600;28;87104;-46
2023/09/09 03:49:29;;;;;;;;;;;20.10;56.40;;;;;;4994077;28;87909;-49
2023/09/09 03:51:55;;;;;;;;;;;20.10;56.40;;;;;;4991185;28;86332;-49
2023/09/09 03:54:21;;;;;;;;;;;20.00;56.40;;;;;;4994217;28;87060;-49
2023/09/09 03:56:46;;;;;;;;;;;20.00;56.40;;;;;;4992942;28;87355;-51
2023/09/09 03:59:12;;;;;;;;;;;20.00;56.40;;;;;;4992246;28;88474;-54
2023/09/09 04:01:37;;;;;;;;;;;20.00;56.40;;;;;;4991447;28;88900;-51
2023/09/09 04:04:03;;;;;;;;;;;20.00;56.50;;;;;;4992976;28;88878;-53
2023/09/09 04:06:29;;;;;;;;;;;19.90;56.50;;;;;;4990574;28;87081;-52
2023/09/09 04:08:56;;;;;;;;;;;19.90;56.50;;;;;;4993789;28;88331;-55
2023/09/09 04:11:22;;;;;;;;;;;19.90;56.50;;;;;;5010248;28;91379;-48
2023/09/09 04:13:48;;;;;;;;;;;20.00;56.50;;;;;;4990449;28;87249;-49
2023/09/09 04:16:13;;;;;;;;;;;19.90;56.40;;;;;;4991484;28;86683;-49
2023/09/09 04:18:39;;;;;;;;;;;19.90;56.50;;;;;;4992273;28;87161;-53
2023/09/09 04:21:04;;;;;;;;;;;19.90;56.40;;;;;;4990505;28;87752;-52
2023/09/09 04:23:30;;;;;;;;;;;19.90;56.40;;;;;;4990740;28;89762;-49
2023/09/09 04:25:55;;;;;;;;;;;19.90;56.40;;;;;;4992059;28;86994;-50
2023/09/09 04:28:21;;;;;;;;;;;19.90;56.50;;;;;;4993276;28;88738;-53
2023/09/09 04:30:46;;;;;;;;;;;19.90;56.50;;;;;;4989428;28;88488;-51
2023/09/09 04:33:12;;;;;;;;;;;19.80;56.40;;;;;;4992494;28;87187;-52
2023/09/09 04:35:38;;;;;;;;;;;19.80;56.40;;;;;;4992164;28;88259;-47
2023/09/09 04:38:04;;;;;;;;;;;19.80;56.40;;;;;;4989961;28;87135;-50
2023/09/09 04:40:29;;;;;;;;;;;19.80;56.50;;;;;;4990699;28;87871;-51
2023/09/09 04:42:55;;;;;;;;;;;19.80;56.40;;;;;;4986614;28;88265;-53
2023/09/09 04:45:23;;;;;;;;;;;19.80;56.50;;;;;;4991734;28;87059;-50
2023/09/09 04:47:49;;;;;;;;;;;19.80;56.50;;;;;;4991441;28;89013;-48
2023/09/09 04:50:15;;;;;;;;;;;19.80;56.40;;;;;;4988610;28;88510;-52
2023/09/09 04:52:41;;;;;;;;;;;19.80;56.40;;;;;;4990013;28;87192;-52
2023/09/09 04:55:07;;;;;;;;;;;19.70;56.80;;;;;;4993195;28;87657;-50
2023/09/09 04:57:32;;;;;;;;;;;19.70;56.40;;;;;;4993249;28;89082;-53
2023/09/09 04:59:58;;;;;;;;;;;19.70;56.30;;;;;;4991561;28;87779;-54
2023/09/09 05:02:23;;;;;;;;;;;19.70;56.30;;;;;;4988104;28;88589;-48
2023/09/09 05:04:50;;;;;;;;;;;19.70;56.30;;;;;;4991900;28;86441;-51
2023/09/09 05:07:17;;;;;;;;;;;19.70;56.30;;;;;;4993326;28;87273;-53
2023/09/09 05:09:42;;;;;;;;;;;19.70;56.40;;;;;;4987422;28;87301;-51
2023/09/09 05:12:08;;;;;;;;;;;19.70;56.40;;;;;;4988173;28;88506;-48
2023/09/09 05:14:33;;;;;;;;;;;19.70;56.40;;;;;;4991882;28;88474;-53
2023/09/09 05:16:59;;;;;;;;;;;19.70;56.40;;;;;;4992464;28;88513;-52
2023/09/09 05:19:24;;;;;;;;;;;19.70;56.30;;;;;;4989597;28;87971;-49
2023/09/09 05:21:50;;;;;;;;;;;19.70;56.30;;;;;;4991902;28;88245;-53
2023/09/09 05:24:15;;;;;;;;;;;19.70;56.30;;;;;;4990020;28;87183;-51
2023/09/09 05:26:41;;;;;;;;;;;19.70;56.30;;;;;;4990011;28;87627;-50
2023/09/09 05:29:07;;;;;;;;;;;19.70;56.40;;;;;;4991753;28;87465;-51
2023/09/09 05:31:32;;;;;;;;;;;19.70;56.30;;;;;;4990558;28;87166;-47
2023/09/09 05:33:58;;;;;;;;;;;19.70;57.00;;;;;;4995776;28;87846;-50
2023/09/09 05:36:24;;;;;;;;;;;19.70;56.30;;;;;;4992597;28;90962;-50
2023/09/09 05:38:49;;;;;;;;;;;19.60;56.30;;;;;;4987964;28;88637;-52
2023/09/09 05:41:15;;;;;;;;;;;19.60;56.30;;;;;;4992361;28;88365;-52
2023/09/09 05:43:40;;;;;;;;;;;19.60;56.30;;;;;;4990103;28;88154;-50
2023/09/09 05:46:06;;;;;;;;;;;19.70;56.30;;;;;;4992970;28;87645;-52
2023/09/09 05:48:31;;;;;;;;;;;19.60;56.50;;;;;;4989733;28;88128;-50
2023/09/09 05:50:57;;;;;;;;;;;19.60;56.50;;;;;;4997436;28;87054;-50
2023/09/09 05:53:23;;;;;;;;;;;19.60;56.50;;;;;;4993347;28;87543;-55
2023/09/09 05:55:50;;;;;;;;;;;19.60;56.60;;;;;;4994053;28;89289;-49
2023/09/09 05:58:15;;;;;;;;;;;19.60;56.60;;;;;;4994997;28;86956;-52
2023/09/09 06:00:41;;;;;;;;;;;19.60;56.80;;;;;;4995450;28;89295;-50
2023/09/09 06:03:07;;;;;;;;;;;19.50;56.80;;;;;;4995781;28;87176;-54
2023/09/09 06:05:32;;;;;;;;;;;19.50;56.70;;;;;;4995180;28;87921;-52
2023/09/09 06:07:58;;;;;;;;;;;19.60;56.90;;;;;;4992272;28;87707;-52
2023/09/09 06:10:24;;;;;;;;;;;19.60;56.90;;;;;;4995820;28;87136;-52
2023/09/09 06:12:49;;;;;;;;;;;19.60;56.80;;;;;;4991080;28;88865;-52
2023/09/09 06:15:15;;;;;;;;;;;19.60;56.90;;;;;;4992334;28;88225;-50
2023/09/09 06:17:41;;;;;;;;;;;19.60;56.80;;;;;;4996178;28;86433;-50
2023/09/09 06:20:07;;;;;;;;;;;19.60;56.80;;;;;;4999731;28;88149;-48
2023/09/09 06:22:34;;;;;;;;;;;19.60;56.90;;;;;;4994543;28;87933;-50
2023/09/09 06:24:59;;;;;;;;;;;19.60;56.90;;;;;;4992004;28;88166;-51
2023/09/09 06:27:25;;;;;;;;;;;19.60;56.90;;;;;;4992600;28;88290;-48
2023/09/09 06:29:50;;;;;;;;;;;19.60;56.90;;;;;;4993979;28;87690;-52
2023/09/09 06:32:16;;;;;;;;;;;19.60;56.90;;;;;;4989819;28;87646;-50
2023/09/09 06:34:41;;;;;;;;;;;19.60;57.00;;;;;;4991262;28;88220;-54
2023/09/09 06:37:09;;;;;;;;;;;19.60;57.00;;;;;;4992088;28;87173;-54
2023/09/09 06:39:35;;;;;;;;;;;19.60;57.10;;;;;;4997776;28;87501;-48
2023/09/09 06:42:00;;;;;;;;;;;19.60;57.10;;;;;;4998214;28;88397;-54
2023/09/09 06:44:26;;;;;;;;;;;19.60;57.10;;;;;;4992083;28;86998;-51
2023/09/09 06:46:51;;;;;;;;;;;19.60;57.20;;;;;;4992460;28;88418;-55
2023/09/09 06:49:17;;;;;;;;;;;19.50;57.20;;;;;;4994711;28;88214;-50
2023/09/09 06:51:42;;;;;;;;;;;19.50;57.10;;;;;;4993341;28;88559;-55
2023/09/09 06:54:08;;;;;;;;;;;19.50;57.20;;;;;;4991470;28;87900;-50
2023/09/09 06:56:33;;;;;;;;;;;19.50;57.30;;;;;;4995839;28;87381;-49
2023/09/09 06:58:59;;;;;;;;;;;19.50;57.40;;;;;;4992577;28;88997;-52
2023/09/09 07:01:24;;;;;;;;;;;19.50;57.40;;;;;;4988903;28;88200;-52
2023/09/09 07:03:50;;;;;;;;;;;19.50;57.40;;;;;;4996978;28;87761;-53
2023/09/09 07:06:16;;;;;;;;;;;19.60;57.50;;;;;;4998917;28;87698;-51
2023/09/09 07:08:43;;;;;;;;;;;19.60;57.50;;;;;;4992067;28;89084;-49
2023/09/09 07:11:08;;;;;;;;;;;19.60;57.60;;;;;;4986844;28;89345;-55
2023/09/09 07:13:34;;;;;;;;;;;19.50;57.50;;;;;;4991024;28;89181;-51
2023/09/09 07:16:00;;;;;;;;;;;19.60;57.50;;;;;;4996229;28;87201;-51
2023/09/09 07:18:25;;;;;;;;;;;19.60;57.50;;;;;;4987567;28;88638;-53
2023/09/09 07:20:51;;;;;;;;;;;19.50;57.50;;;;;;4989872;28;89218;-50
2023/09/09 07:23:17;;;;;;;;;;;19.50;57.40;;;;;;4990138;28;87179;-52
2023/09/09 07:25:43;;;;;;;;;;;19.60;57.50;;;;;;4997251;28;87093;-50
2023/09/09 07:28:09;;;;;;;;;;;19.50;57.30;;;;;;4989903;28;87738;-49
2023/09/09 07:30:35;;;;;;;;;;;19.50;57.50;;;;;;4992010;28;88028;-52
2023/09/09 07:33:00;;;;;;;;;;;19.50;57.60;;;;;;4992719;28;88075;-50
2023/09/09 07:35:26;;;;;;;;;;;19.60;57.50;;;;;;4994992;28;87625;-54
2023/09/09 07:37:51;;;;;;;;;;;19.60;57.40;;;;;;4988869;28;88598;-51
2023/09/09 07:40:17;;;;;;;;;;;19.60;57.40;;;;;;4993931;28;88568;-46
2023/09/09 07:42:42;;;;;;;;;;;19.50;57.30;;;;;;4994894;28;87237;-48
2023/09/09 07:45:08;;;;;;;;;;;19.60;57.40;;;;;;4989286;28;89843;-51
2023/09/09 07:47:34;;;;;;;;;;;19.60;57.20;;;;;;4986790;28;87132;-49
2023/09/09 07:49:59;;;;;;;;;;;19.60;57.00;;;;;;4992991;28;87107;-49
2023/09/09 07:52:25;;;;;;;;;;;19.60;56.80;;;;;;4989431;28;89723;-51
2023/09/09 07:54:54;;;;;;;;;;;19.60;56.80;;;;;;4990692;28;86575;-53
2023/09/09 07:57:19;;;;;;;;;;;19.60;56.90;;;;;;4987637;28;87129;-49
2023/09/09 07:59:45;;;;;;;;;;;19.60;56.70;;;;;;4993360;28;88698;-50
2023/09/09 08:02:13;;;;;;;;;;;19.60;56.50;;;;;;4989380;28;88093;-49
2023/09/09 08:04:38;;;;;;;;;;;19.60;56.60;;;;;;4989929;28;90314;-50
2023/09/09 08:07:04;;;;;;;;;;;19.60;56.40;;;;;;4994984;28;88516;-48
2023/09/09 08:09:31;;;;;;;;;;;19.60;56.60;;;;;;4990269;28;87623;-52
2023/09/09 08:11:56;;;;;;;;;;;19.60;56.10;;;;;;4991635;28;88200;-48
2023/09/09 08:14:22;;;;;;;;;;;19.60;55.90;;;;;;4987716;28;87211;-52
2023/09/09 08:16:47;;;;;;;;;;;19.60;55.90;;;;;;4992608;28;87901;-52
2023/09/09 08:19:13;;;;;;;;;;;19.60;55.90;;;;;;4995324;28;87480;-50
2023/09/09 08:21:38;;;;;;;;;;;19.50;55.80;;;;;;4983667;28;87999;-51
2023/09/09 08:24:04;;;;;;;;;;;19.60;56.10;;;;;;4991035;28;87921;-47
2023/09/09 08:26:29;;;;;;;;;;;19.60;55.90;;;;;;4992606;28;89145;-50
2023/09/09 08:28:55;;;;;;;;;;;19.60;55.30;;;;;;4993725;28;87514;-54
2023/09/09 08:31:21;;;;;;;;;;;19.60;55.30;;;;;;4989829;28;88313;-50
2023/09/09 08:33:46;;;;;;;;;;;19.60;55.10;;;;;;4994512;28;87346;-49
2023/09/09 08:36:12;;;;;;;;;;;19.60;55.10;;;;;;4992625;28;87738;-47
2023/09/09 08:38:38;;;;;;;;;;;19.60;55.40;;;;;;4997087;28;88351;-51
2023/09/09 08:41:35;;;;;;;;;;;19.60;55.30;;;;;;4990157;28;87776;-50
2023/09/09 08:44:20;;;;;;;;;;;19.60;55.30;;;;;;4993685;28;87511;-54
2023/09/09 08:46:45;;;;;;;;;;;19.70;55.20;;;;;;4993291;28;88198;-49
2023/09/09 08:49:12;;;;;;;;;;;19.60;55.10;;;;;;4991946;28;88331;-53
2023/09/09 08:51:40;;;;;;;;;;;19.60;55.30;;;;;;4991491;28;89777;-47
2023/09/09 08:54:07;;;;;;;;;;;19.60;55.30;;;;;;4989753;28;87054;-52
2023/09/09 08:56:32;;;;;;;;;;;19.60;55.10;;;;;;4992637;28;88489;-52
2023/09/09 08:58:58;;;;;;;;;;;19.60;55.00;;;;;;4988950;28;88186;-48
2023/09/09 09:01:25;;;;;;;;;;;19.70;55.10;;;;;;4989200;28;87114;-53
2023/09/09 09:03:53;;;;;;;;;;;19.70;54.90;;;;;;4991989;28;87419;-55
2023/09/09 09:06:19;;;;;;;;;;;19.70;55.00;;;;;;4992260;28;88218;-51
2023/09/09 09:08:45;;;;;;;;;;;19.70;54.80;;;;;;4990742;28;86464;-52
2023/09/09 09:11:11;;;;;;;;;;;19.70;54.40;;;;;;4990411;28;87351;-49
2023/09/09 09:13:37;;;;;;;;;;;19.70;54.70;;;;;;4995460;28;88178;-50
2023/09/09 09:16:03;;;;;;;;;;;19.70;53.60;;;;;;4994994;28;88842;-47
2023/09/09 09:18:28;;;;;;;;;;;19.70;54.20;;;;;;4987112;28;89651;-47
2023/09/09 09:21:04;;;;;;;;;;;19.70;54.30;;;;;;4989548;28;87213;-49
2023/09/09 09:23:29;;;;;;;;;;;19.70;54.10;;;;;;4994920;28;87573;-50
2023/09/09 09:25:55;;;;;;;;;;;19.70;54.10;;;;;;4990387;28;89647;-51
2023/09/09 09:28:20;;;;;;;;;;;19.70;53.60;;;;;;4994043;28;87337;-51
2023/09/09 09:30:47;;;;;;;;;;;19.70;53.40;;;;;;4993698;28;87755;-51
2023/09/09 09:33:14;;;;;;;;;;;19.70;53.60;;;;;;4999170;28;89100;-52
2023/09/09 09:35:40;;;;;;;;;;;19.80;53.90;;;;;;4992932;28;87686;-51
2023/09/09 09:38:09;;;;;;;;;;;19.80;53.80;;;;;;4991351;28;88632;-48
2023/09/09 09:40:35;;;;;;;;;;;19.80;53.90;;;;;;4994433;28;88062;-48
2023/09/09 09:43:01;;;;;;;;;;;19.80;54.10;;;;;;4994828;28;88298;-50
2023/09/09 09:45:28;;;;;;;;;;;19.80;53.80;;;;;;4990089;28;90120;-49
2023/09/09 09:47:54;;;;;;;;;;;19.80;53.80;;;;;;4992946;28;87200;-51
2023/09/09 09:50:28;;;;;;;;;;;19.90;53.10;;;;;;4995207;28;89038;-54
2023/09/09 09:53:00;;;;;;;;;;;19.90;52.50;;;;;;4998430;28;88614;-51
2023/09/09 09:55:26;;;;;;;;;;;19.90;51.70;;;;;;4996311;28;89008;-51
2023/09/09 09:57:56;;;;;;;;;;;19.90;52.70;;;;;;4995612;28;87545;-49
2023/09/09 10:00:22;;;;;;;;;;;19.90;52.70;;;;;;5008978;28;87564;-54
2023/09/09 10:02:52;;;;;;;;;;;19.90;52.60;;;;;;4993498;28;87363;-49
2023/09/09 10:05:20;;;;;;;;;;;19.90;52.30;;;;;;4991419;28;90175;-52
2023/09/09 10:07:50;;;;;;;;;;;20.00;52.30;;;;;;4994907;28;87095;-48
2023/09/09 10:10:16;;;;;;;;;;;19.90;52.40;;;;;;4993549;28;87235;-53
2023/09/09 10:12:51;;;;;;;;;;;20.00;51.70;;;;;;4990915;28;88176;-49
2023/09/09 10:15:17;;;;;;;;;;;20.00;52.20;;;;;;4992227;28;87144;-48
2023/09/09 10:17:42;;;;;;;;;;;20.00;52.00;;;;;;4996549;28;87593;-52
2023/09/09 10:20:08;;;;;;;;;;;20.00;51.70;;;;;;4995941;28;87167;-47
2023/09/09 10:22:35;;;;;;;;;;;20.00;51.80;;;;;;4994566;28;86542;-52
2023/09/09 10:25:03;;;;;;;;;;;20.00;51.30;;;;;;4991232;28;87395;-49
2023/09/09 10:27:29;;;;;;;;;;;20.00;51.20;;;;;;4996296;28;87381;-49
2023/09/09 10:29:57;;;;;;;;;;;20.00;51.80;;;;;;4988870;28;88081;-50
2023/09/09 10:32:24;;;;;;;;;;;20.10;52.00;;;;;;4986569;28;89729;-46
2023/09/09 10:34:50;;;;;;;;;;;20.10;51.40;;;;;;4994339;28;87176;-51
2023/09/09 10:37:17;;;;;;;;;;;20.10;50.10;;;;;;4995457;28;87654;-51
2023/09/09 10:39:45;;;;;;;;;;;20.10;51.20;;;;;;4996386;28;88291;-51
2023/09/09 10:42:10;;;;;;;;;;;20.10;50.70;;;;;;4992165;28;87718;-51
2023/09/09 10:44:38;;;;;;;;;;;20.20;50.70;;;;;;4992368;28;88283;-49
2023/09/09 10:47:07;;;;;;;;;;;20.20;51.20;;;;;;4999055;28;87136;-49
2023/09/09 10:49:32;;;;;;;;;;;20.20;50.30;;;;;;4989740;28;88248;-49
2023/09/09 10:51:58;;;;;;;;;;;20.20;49.60;;;;;;4991276;28;88151;-49
2023/09/09 10:54:25;;;;;;;;;;;20.20;50.50;;;;;;4991769;28;88182;-54
2023/09/09 10:56:54;;;;;;;;;;;20.20;50.00;;;;;;4988611;28;88231;-47
2023/09/09 10:59:20;;;;;;;;;;;20.20;49.20;;;;;;4988467;28;87857;-48
2023/09/09 11:01:48;;;;;;;;;;;20.20;48.70;;;;;;4995089;28;87743;-51
2023/09/09 11:04:20;;;;;;;;;;;20.30;50.50;;;;;;4992846;28;88106;-49
2023/09/09 11:07:04;;;;;;;;;;;20.30;50.80;;;;;;4988651;28;87240;-48
2023/09/09 11:09:30;;;;;;;;;;;20.30;50.50;;;;;;4992970;28;88293;-56
2023/09/09 11:11:55;;;;;;;;;;;20.30;49.40;;;;;;4992387;28;89235;-46
2023/09/09 11:14:21;;;;;;;;;;;20.30;49.80;;;;;;4994410;28;87845;-52
2023/09/09 11:16:53;;;;;;;;;;;20.30;49.50;;;;;;4997512;28;87528;-52
2023/09/09 11:19:21;;;;;;;;;;;20.40;49.90;;;;;;4990528;28;89395;-50
2023/09/09 11:21:47;;;;;;;;;;;20.40;50.30;;;;;;4991865;28;87242;-48
2023/09/09 11:24:13;;;;;;;;;;;20.40;50.40;;;;;;4999096;28;87510;-49
2023/09/09 11:26:40;;;;;;;;;;;20.40;48.50;;;;;;4991648;28;88997;-50
2023/09/09 11:29:06;;;;;;;;;;;20.40;49.90;;;;;;4991734;28;87585;-50
2023/09/09 11:31:31;;;;;;;;;;;20.50;50.70;;;;;;4992509;28;88183;-48
2023/09/09 11:33:57;;;;;;;;;;;20.40;50.40;;;;;;4996464;28;87356;-49
2023/09/09 11:36:23;;;;;;;;;;;20.50;50.50;;;;;;4994759;28;88729;-52
2023/09/09 11:38:49;;;;;;;;;;;20.50;49.60;;;;;;4993094;28;88306;-51
2023/09/09 11:41:19;;;;;;;;;;;20.60;49.60;;;;;;4992331;28;86995;-50
2023/09/09 11:43:46;;;;;;;;;;;20.60;50.00;;;;;;4990080;28;87997;-50
2023/09/09 11:46:12;;;;;;;;;;;20.60;50.10;;;;;;4993486;28;87296;-51
2023/09/09 11:48:37;;;;;;;;;;;20.60;50.00;;;;;;4992323;28;87542;-50
2023/09/09 11:51:03;;;;;;;;;;;20.60;49.20;;;;;;4994921;28;88263;-50
2023/09/09 11:53:29;;;;;;;;;;;20.60;49.60;;;;;;4993067;28;87304;-52
2023/09/09 11:55:56;;;;;;;;;;;20.60;49.20;;;;;;4989493;28;87971;-51
2023/09/09 11:58:21;;;;;;;;;;;20.70;49.10;;;;;;4993051;28;88508;-49
2023/09/09 12:00:47;;;;;;;;;;;20.70;49.00;;;;;;4991768;28;86398;-49
2023/09/09 12:03:20;;;;;;;;;;;20.70;49.00;;;;;;4993366;28;88811;-49
2023/09/09 12:05:48;;;;;;;;;;;20.70;49.50;;;;;;4993157;28;89555;-49
2023/09/09 12:08:13;;;;;;;;;;;20.70;48.30;;;;;;4992086;28;87995;-51
2023/09/09 12:10:39;;;;;;;;;;;20.70;49.00;;;;;;4992736;28;88436;-49
2023/09/09 12:13:05;;;;;;;;;;;20.70;49.30;;;;;;4991687;28;87469;-49
2023/09/09 12:15:31;;;;;;;;;;;20.80;49.20;;;;;;4994403;28;87669;-48
2023/09/09 12:17:56;;;;;;;;;;;20.80;48.50;;;;;;4990530;28;88266;-48
2023/09/09 12:20:22;;;;;;;;;;;20.80;48.90;;;;;;4993900;28;87754;-46
2023/09/09 12:22:50;;;;;;;;;;;20.90;48.00;;;;;;4987580;28;89237;-48
2023/09/09 12:25:31;;;;;;;;;;;20.90;48.40;;;;;;4990316;28;87466;-49
2023/09/09 12:27:57;;;;;;;;;;;20.90;48.60;;;;;;4993881;28;87135;-49
2023/09/09 12:30:29;;;;;;;;;;;20.90;48.00;;;;;;4993767;28;88138;-47
2023/09/09 12:32:55;;;;;;;;;;;20.90;48.40;;;;;;4986502;28;88113;-49
2023/09/09 12:35:20;;;;;;;;;;;20.90;48.60;;;;;;4992294;28;88643;-51
2023/09/09 12:37:46;;;;;;;;;;;20.90;48.70;;;;;;4988003;28;87970;-49
2023/09/09 12:40:11;;;;;;;;;;;21.00;48.20;;;;;;4991347;28;87656;-51
2023/09/09 12:42:37;;;;;;;;;;;21.00;47.80;;;;;;4995267;28;87869;-53
2023/09/09 12:45:09;;;;;;;;;;;21.00;44.00;;;;;;4990237;28;88098;-46
2023/09/09 12:47:35;;;;;;;;;;;21.00;43.20;;;;;;4992688;28;87191;-51
2023/09/09 12:50:00;;;;;;;;;;;21.00;42.10;;;;;;4990457;28;88170;-54
2023/09/09 12:52:32;;;;;;;;;;;21.10;42.00;;;;;;4989529;28;87216;-53
2023/09/09 12:54:58;;;;;;;;;;;21.10;41.60;;;;;;4991036;28;87656;-49
2023/09/09 12:57:23;;;;;;;;;;;21.10;42.00;;;;;;4991604;28;88333;-50
2023/09/09 12:59:49;;;;;;;;;;;21.10;41.70;;;;;;4992845;28;87216;-51
2023/09/09 13:02:14;;;;;;;;;;;21.10;41.80;;;;;;4993665;28;87780;-53
2023/09/09 13:04:40;;;;;;;;;;;21.20;41.70;;;;;;4995801;28;88203;-52
2023/09/09 13:07:06;;;;;;;;;;;21.20;41.50;;;;;;4997139;28;87343;-51
2023/09/09 13:09:31;;;;;;;;;;;21.30;41.90;;;;;;4993401;28;87626;-53
2023/09/09 13:11:57;;;;;;;;;;;21.30;41.90;;;;;;4995342;28;87782;-54
2023/09/09 13:14:22;;;;;;;;;;;21.40;42.00;;;;;;4999466;28;87654;-52
2023/09/09 13:16:49;;;;;;;;;;;21.50;41.00;;;;;;4992812;28;87710;-53
2023/09/09 13:19:16;;;;;;;;;;;21.40;41.10;;;;;;4997795;28;87244;-50
2023/09/09 13:21:41;;;;;;;;;;;21.50;41.00;;;;;;4995179;28;88960;-49
2023/09/09 13:24:07;;;;;;;;;;;21.40;41.10;;;;;;4993775;28;88281;-50
2023/09/09 13:26:32;;;;;;;;;;;21.50;41.10;;;;;;4992378;28;87295;-54
2023/09/09 13:28:58;;;;;;;;;;;21.60;42.90;;;;;;4994420;28;87415;-50
2023/09/09 13:31:23;;;;;;;;;;;21.60;42.20;;;;;;4994037;28;88378;-51
2023/09/09 13:33:49;;;;;;;;;;;21.70;41.70;;;;;;4994887;28;87161;-46
2023/09/09 13:36:14;;;;;;;;;;;21.70;41.50;;;;;;4996473;28;88617;-51
2023/09/09 13:38:40;;;;;;;;;;;21.70;42.20;;;;;;4993546;28;86291;-50
2023/09/09 13:41:06;;;;;;;;;;;21.80;41.20;;;;;;4993377;28;88112;-52
2023/09/09 13:43:31;;;;;;;;;;;21.80;40.90;;;;;;4993579;28;88214;-49
2023/09/09 13:45:57;;;;;;;;;;;21.80;41.10;;;;;;4991150;28;88717;-51
2023/09/09 13:48:22;;;;;;;;;;;21.80;40.80;;;;;;4992037;28;90336;-53
2023/09/09 13:50:48;;;;;;;;;;;21.80;41.10;;;;;;4997363;28;88565;-47
2023/09/09 13:53:14;;;;;;;;;;;22.00;41.50;;;;;;4998893;28;87776;-66
2023/09/09 13:55:39;;;;;;;;;;;21.90;40.50;;;;;;4997774;28;87459;-61
2023/09/09 13:58:05;;;;;;;;;;;21.90;42.50;;;;;;4995416;28;87130;-63
2023/09/09 14:00:32;;;;;;;;;;;22.00;42.00;;;;;;4996764;28;87712;-59
2023/09/09 14:02:57;;;;;;;;;;;22.00;40.50;;;;;;4994417;28;87606;-60
2023/09/09 14:05:23;;;;;;;;;;;22.00;40.30;;;;;;4997284;28;88903;-50
2023/09/09 14:07:48;;;;;;;;;;;22.00;39.40;;;;;;4995245;28;87986;-57
2023/09/09 14:10:15;;;;;;;;;;;22.10;40.00;;;;;;4993202;28;89555;-57